Time,TemperatureF,DewpointF,PressureIn,WindDirection,WindDirectionDegrees,WindSpeedMPH,WindSpeedGustMPH,Humidity,HourlyPrecipIn,Conditions,Clouds,dailyrainin,SoftwareType,DateUTC
2013-01-10 00:04:00,69.1,68.2,30.09,WNW,292,0.0,-999.0,97,-99.99,,,0.00,Acu-Link.com,2013-01-10 05:04:00,
2013-01-10 00:19:00,69.4,68.2,30.09,West,270,0.0,-999.0,96,-99.99,,,0.00,Acu-Link.com,2013-01-10 05:19:00,
2013-01-10 00:35:00,69.3,68.4,30.09,SE,135,1.1,-999.0,97,-99.99,,,0.00,Acu-Link.com,2013-01-10 05:35:00,
2013-01-10 00:50:00,69.3,68.4,30.09,South,180,0.0,-999.0,97,-99.99,,,0.00,Acu-Link.com,2013-01-10 05:50:00,
2013-01-10 01:06:00,69.3,68.4,30.09,SSE,157,0.0,-999.0,97,-99.99,,,0.00,Acu-Link.com,2013-01-10 06:06:00,
2013-01-10 01:21:00,69.3,68.1,30.09,SSE,157,0.0,-999.0,96,-99.99,,,0.00,Acu-Link.com,2013-01-10 06:21:00,
2013-01-10 01:36:00,68.9,68.0,30.09,ESE,112,2.2,-999.0,97,-99.99,,,0.00,Acu-Link.com,2013-01-10 06:36:00,
2013-01-10 01:51:00,69.8,68.6,30.09,NW,315,1.1,-999.0,96,-99.99,,,0.00,Acu-Link.com,2013-01-10 06:51:00,
2013-01-10 02:07:00,69.6,68.1,30.09,West,270,0.0,-999.0,95,-99.99,,,0.00,Acu-Link.com,2013-01-10 07:07:00,
2013-01-10 02:22:00,69.3,68.1,30.09,SSE,157,0.0,-999.0,96,-99.99,,,0.00,Acu-Link.com,2013-01-10 07:22:00,
2013-01-10 02:37:00,69.3,68.4,30.08,South,180,2.2,-999.0,97,-99.99,,,0.00,Acu-Link.com,2013-01-10 07:37:00,
2013-01-10 02:53:00,69.3,68.7,30.09,ESE,112,1.1,-999.0,98,-99.99,,,0.00,Acu-Link.com,2013-01-10 07:53:00,
2013-01-10 03:08:00,69.3,68.7,30.09,ESE,112,0.0,-999.0,98,-99.99,,,0.00,Acu-Link.com,2013-01-10 08:08:00,
2013-01-10 03:23:00,69.6,68.7,30.09,East,90,1.1,-999.0,97,-99.99,,,0.00,Acu-Link.com,2013-01-10 08:23:00,
2013-01-10 03:39:00,69.3,68.7,30.08,East,90,1.7,-999.0,98,-99.99,,,0.00,Acu-Link.com,2013-01-10 08:39:00,
2013-01-10 03:54:00,68.9,68.6,30.08,ESE,112,2.7,-999.0,99,-99.99,,,0.00,Acu-Link.com,2013-01-10 08:54:00,
2013-01-10 04:09:00,68.9,68.6,30.07,WNW,292,1.7,-999.0,99,-99.99,,,0.00,Acu-Link.com,2013-01-10 09:09:00,
2013-01-10 04:24:00,68.7,68.4,30.07,WNW,292,1.1,-999.0,99,-99.99,,,0.00,Acu-Link.com,2013-01-10 09:24:00,
2013-01-10 04:39:00,68.7,68.4,30.07,SSE,157,1.7,-999.0,99,-99.99,,,0.00,Acu-Link.com,2013-01-10 09:39:00,
2013-01-10 04:54:00,68.9,68.6,30.07,SW,225,0.0,-999.0,99,-99.99,,,0.00,Acu-Link.com,2013-01-10 09:54:00,
2013-01-10 05:10:00,68.7,68.4,30.07,SSE,157,0.0,-999.0,99,-99.99,,,0.00,Acu-Link.com,2013-01-10 10:10:00,
2013-01-10 05:25:00,68.7,68.4,30.07,SSE,157,1.7,-999.0,99,-99.99,,,0.00,Acu-Link.com,2013-01-10 10:25:00,
2013-01-10 05:40:00,68.5,68.2,30.07,SE,135,1.7,-999.0,99,-99.99,,,0.00,Acu-Link.com,2013-01-10 10:40:00,
2013-01-10 05:56:00,68.4,68.1,30.07,SSW,202,1.7,-999.0,99,-99.99,,,0.00,Acu-Link.com,2013-01-10 10:56:00,
2013-01-10 06:11:00,68.4,68.1,30.07,SSE,157,1.7,-999.0,99,-99.99,,,0.00,Acu-Link.com,2013-01-10 11:11:00,
2013-01-10 06:26:00,68.7,68.4,30.08,ESE,112,1.7,-999.0,99,-99.99,,,0.00,Acu-Link.com,2013-01-10 11:26:00,
2013-01-10 06:42:00,68.4,68.1,30.09,SE,135,1.7,-999.0,99,-99.99,,,0.00,Acu-Link.com,2013-01-10 11:42:00,
2013-01-10 06:57:00,68.2,67.9,30.09,SSE,157,0.0,-999.0,99,-99.99,,,0.00,Acu-Link.com,2013-01-10 11:57:00,
2013-01-10 07:12:00,68.0,67.7,30.09,SSW,202,1.7,-999.0,99,-99.99,,,0.00,Acu-Link.com,2013-01-10 12:12:00,
2013-01-10 07:27:00,67.8,67.5,30.10,SSW,202,0.0,-999.0,99,-99.99,,,0.00,Acu-Link.com,2013-01-10 12:27:00,
2013-01-10 07:43:00,67.8,67.5,30.10,South,180,0.0,-999.0,99,-99.99,,,0.00,Acu-Link.com,2013-01-10 12:43:00,
2013-01-10 07:58:00,68.0,67.7,30.10,SE,135,1.7,-999.0,99,-99.99,,,0.00,Acu-Link.com,2013-01-10 12:58:00,
2013-01-10 08:14:00,68.4,68.1,30.10,ESE,112,2.7,-999.0,99,-99.99,,,0.00,Acu-Link.com,2013-01-10 13:14:00,
2013-01-10 08:29:00,68.5,68.2,30.11,SSE,157,0.0,-999.0,99,-99.99,,,0.00,Acu-Link.com,2013-01-10 13:29:00,
2013-01-10 08:44:00,69.8,69.2,30.11,SSE,157,0.0,-999.0,98,-99.99,,,0.00,Acu-Link.com,2013-01-10 13:44:00,
2013-01-10 09:00:00,72.1,70.0,30.11,SSE,157,2.7,-999.0,93,-99.99,,,0.00,Acu-Link.com,2013-01-10 14:00:00,
2013-01-10 09:15:00,73.2,69.8,30.11,East,90,3.7,-999.0,89,-99.99,,,0.00,Acu-Link.com,2013-01-10 14:15:00,
2013-01-10 09:30:00,74.8,70.3,30.11,SSW,202,2.7,-999.0,86,-99.99,,,0.00,Acu-Link.com,2013-01-10 14:30:00,
2013-01-10 09:45:00,76.5,70.9,30.11,SE,135,2.7,-999.0,83,-99.99,,,0.00,Acu-Link.com,2013-01-10 14:45:00,
2013-01-10 10:01:00,76.5,70.2,30.11,NNE,22,3.2,-999.0,81,-99.99,,,0.00,Acu-Link.com,2013-01-10 15:01:00,
2013-01-10 10:16:00,79.2,69.4,30.10,SSE,157,5.3,-999.0,72,-99.99,,,0.00,Acu-Link.com,2013-01-10 15:16:00,
2013-01-10 10:31:00,78.4,68.6,30.09,ESE,112,4.2,-999.0,72,-99.99,,,0.00,Acu-Link.com,2013-01-10 15:31:00,
2013-01-10 10:47:00,79.2,67.3,30.07,ENE,67,5.3,-999.0,67,-99.99,,,0.00,Acu-Link.com,2013-01-10 15:47:00,
2013-01-10 11:02:00,79.3,66.9,30.07,East,90,2.7,-999.0,66,-99.99,,,0.00,Acu-Link.com,2013-01-10 16:02:00,
2013-01-10 11:18:00,80.1,67.3,30.05,SW,225,5.3,-999.0,65,-99.99,,,0.00,Acu-Link.com,2013-01-10 16:18:00,
2013-01-10 11:33:00,80.8,68.4,30.05,ESE,112,4.7,-999.0,66,-99.99,,,0.00,Acu-Link.com,2013-01-10 16:33:00,
2013-01-10 11:48:00,81.7,67.9,30.04,East,90,6.3,-999.0,63,-99.99,,,0.00,Acu-Link.com,2013-01-10 16:48:00,
2013-01-10 12:03:00,82.2,67.9,30.03,East,90,3.7,-999.0,62,-99.99,,,0.00,Acu-Link.com,2013-01-10 17:03:00,
2013-01-10 12:19:00,80.1,65.9,30.03,North,0,3.7,-999.0,62,-99.99,,,0.00,Acu-Link.com,2013-01-10 17:19:00,
2013-01-10 12:34:00,79.9,65.7,30.01,WSW,247,4.7,-999.0,62,-99.99,,,0.00,Acu-Link.com,2013-01-10 17:34:00,
2013-01-10 12:49:00,79.2,65.5,30.01,ESE,112,3.2,-999.0,63,-99.99,,,0.00,Acu-Link.com,2013-01-10 17:49:00,
2013-01-10 13:05:00,81.5,66.7,30.01,ESE,112,7.3,-999.0,61,-99.99,,,0.00,Acu-Link.com,2013-01-10 18:05:00,
2013-01-10 13:20:00,81.9,67.1,30.01,East,90,0.0,-999.0,61,-99.99,,,0.00,Acu-Link.com,2013-01-10 18:20:00,
2013-01-10 13:35:00,83.7,67.3,30.00,SE,135,4.7,-999.0,58,-99.99,,,0.00,Acu-Link.com,2013-01-10 18:35:00,
2013-01-10 13:51:00,80.4,65.2,30.01,East,90,4.2,-999.0,60,-99.99,,,0.00,Acu-Link.com,2013-01-10 18:51:00,
2013-01-10 14:06:00,81.0,66.3,30.00,ENE,67,2.7,-999.0,61,-99.99,,,0.00,Acu-Link.com,2013-01-10 19:06:00,
2013-01-10 14:21:00,81.5,65.8,30.01,ESE,112,4.2,-999.0,59,-99.99,,,0.00,Acu-Link.com,2013-01-10 19:21:00,
2013-01-10 14:36:00,82.9,66.1,30.00,NE,45,3.2,-999.0,57,-99.99,,,0.00,Acu-Link.com,2013-01-10 19:36:00,
2013-01-10 14:52:00,81.9,65.1,30.01,West,270,2.7,-999.0,57,-99.99,,,0.00,Acu-Link.com,2013-01-10 19:52:00,
2013-01-10 15:07:00,82.9,65.6,30.00,SSE,157,3.7,-999.0,56,-99.99,,,0.00,Acu-Link.com,2013-01-10 20:07:00,
2013-01-10 15:22:00,81.9,65.6,30.00,NE,45,5.8,-999.0,58,-99.99,,,0.00,Acu-Link.com,2013-01-10 20:22:00,
2013-01-10 15:37:00,80.8,65.1,30.01,SE,135,4.2,-999.0,59,-99.99,,,0.00,Acu-Link.com,2013-01-10 20:37:00,
2013-01-10 15:53:00,81.7,66.0,30.01,SE,135,4.2,-999.0,59,-99.99,,,0.00,Acu-Link.com,2013-01-10 20:53:00,
2013-01-10 16:08:00,80.8,65.6,30.00,ESE,112,1.1,-999.0,60,-99.99,,,0.00,Acu-Link.com,2013-01-10 21:08:00,
2013-01-10 16:23:00,80.4,65.2,30.00,West,270,2.2,-999.0,60,-99.99,,,0.00,Acu-Link.com,2013-01-10 21:23:00,
2013-01-10 16:54:00,79.3,65.6,30.00,SE,135,2.2,-999.0,63,-99.99,,,0.00,Acu-Link.com,2013-01-10 21:54:00,
2013-01-10 17:09:00,78.6,65.4,30.00,ESE,112,2.7,-999.0,64,-99.99,,,0.00,Acu-Link.com,2013-01-10 22:09:00,
2013-01-10 17:25:00,77.9,65.2,30.01,SSE,157,2.7,-999.0,65,-99.99,,,0.00,Acu-Link.com,2013-01-10 22:25:00,
2013-01-10 17:40:00,76.5,65.1,30.00,ESE,112,4.2,-999.0,68,-99.99,,,0.00,Acu-Link.com,2013-01-10 22:40:00,
2013-01-10 17:55:00,75.6,65.1,30.01,ENE,67,4.7,-999.0,70,-99.99,,,0.00,Acu-Link.com,2013-01-10 22:55:00,
2013-01-10 18:10:00,74.3,64.7,30.01,ESE,112,3.7,-999.0,72,-99.99,,,0.00,Acu-Link.com,2013-01-10 23:10:00,
2013-01-10 18:41:00,72.9,64.5,30.01,South,180,2.7,-999.0,75,-99.99,,,0.00,Acu-Link.com,2013-01-10 23:41:00,
2013-01-10 18:56:00,72.3,63.9,30.02,ESE,112,2.7,-999.0,75,-99.99,,,0.00,Acu-Link.com,2013-01-10 23:56:00,
2013-01-10 19:12:00,72.0,64.0,30.03,SSW,202,2.7,-999.0,76,-99.99,,,0.00,Acu-Link.com,2013-01-11 00:12:00,
2013-01-10 19:27:00,71.4,63.4,30.03,East,90,2.2,-999.0,76,-99.99,,,0.00,Acu-Link.com,2013-01-11 00:27:00,
2013-01-10 19:42:00,70.5,63.3,30.03,SE,135,0.0,-999.0,78,-99.99,,,0.00,Acu-Link.com,2013-01-11 00:42:00,
2013-01-10 19:58:00,70.2,63.4,30.04,ESE,112,2.7,-999.0,79,-99.99,,,0.00,Acu-Link.com,2013-01-11 00:58:00,
2013-01-10 20:28:00,69.8,63.7,30.04,ESE,112,3.2,-999.0,81,-99.99,,,0.00,Acu-Link.com,2013-01-11 01:28:00,
2013-01-10 20:43:00,69.4,63.3,30.05,ESE,112,2.7,-999.0,81,-99.99,,,0.00,Acu-Link.com,2013-01-11 01:43:00,
2013-01-10 20:59:00,69.3,63.2,30.06,ESE,112,2.2,-999.0,81,-99.99,,,0.00,Acu-Link.com,2013-01-11 01:59:00,
2013-01-10 21:14:00,68.7,63.0,30.06,ESE,112,0.0,-999.0,82,-99.99,,,0.00,Acu-Link.com,2013-01-11 02:14:00,
2013-01-10 21:29:00,68.4,63.0,30.06,ENE,67,2.7,-999.0,83,-99.99,,,0.00,Acu-Link.com,2013-01-11 02:29:00,
2013-01-10 21:45:00,67.6,62.6,30.06,ESE,112,2.2,-999.0,84,-99.99,,,0.00,Acu-Link.com,2013-01-11 02:45:00,
2013-01-10 22:00:00,67.5,62.8,30.06,East,90,2.2,-999.0,85,-99.99,,,0.00,Acu-Link.com,2013-01-11 03:00:00,
2013-01-10 22:15:00,67.3,62.6,30.06,SSE,157,1.7,-999.0,85,-99.99,,,0.00,Acu-Link.com,2013-01-11 03:15:00,
2013-01-10 22:31:00,67.1,62.8,30.06,ESE,112,3.2,-999.0,86,-99.99,,,0.00,Acu-Link.com,2013-01-11 03:31:00,
2013-01-10 22:46:00,67.1,62.8,30.06,SSE,157,3.2,-999.0,86,-99.99,,,0.00,Acu-Link.com,2013-01-11 03:46:00,
2013-01-10 23:01:00,66.7,62.7,30.06,ESE,112,2.2,-999.0,87,-99.99,,,0.00,Acu-Link.com,2013-01-11 04:01:00,
2013-01-10 23:16:00,66.4,62.4,30.07,SSE,157,0.0,-999.0,87,-99.99,,,0.00,Acu-Link.com,2013-01-11 04:16:00,
2013-01-10 23:32:00,66.7,62.4,30.07,WNW,292,1.7,-999.0,86,-99.99,,,0.00,Acu-Link.com,2013-01-11 04:32:00,
2013-01-10 23:47:00,65.1,61.5,30.07,SSE,157,0.0,-999.0,88,-99.99,,,0.00,Acu-Link.com,2013-01-11 04:47:00,